Time,TemperatureF,DewpointF,PressureIn,WindDirection,WindDirectionDegrees,WindSpeedMPH,WindSpeedGustMPH,Humidity,HourlyPrecipIn,Conditions,Clouds,dailyrainin,SoftwareType,DateUTC
2013-03-26 00:04:00,34.1,29.8,30.28,ENE,60,6.0,6.0,84,0.00,CLR,,0.00,WeatherDisplay:10.37,2013-03-26 00:04:00,
2013-03-26 00:09:00,34.1,29.5,30.28,NE,47,8.1,8.1,83,0.00,CLR,,0.00,WeatherDisplay:10.37,2013-03-26 00:09:00,
2013-03-26 00:14:00,34.0,29.1,30.28,East,85,8.1,8.1,82,0.00,CLR,,0.00,WeatherDisplay:10.37,2013-03-26 00:14:00,
2013-03-26 00:19:00,34.0,29.1,30.28,ENE,74,6.9,6.9,82,0.00,CLR,,0.00,WeatherDisplay:10.37,2013-03-26 00:19:00,
2013-03-26 00:24:00,34.0,29.1,30.28,NNE,19,9.2,9.2,82,0.00,CLR,,0.00,WeatherDisplay:10.37,2013-03-26 00:24:00,
2013-03-26 00:29:00,34.0,29.1,30.28,ENE,67,6.9,6.9,82,0.00,CLR,,0.00,WeatherDisplay:10.37,2013-03-26 00:29:00,
2013-03-26 00:34:00,34.1,29.2,30.28,ENE,77,6.9,6.9,82,0.00,CLR,,0.00,WeatherDisplay:10.37,2013-03-26 00:34:00,
2013-03-26 00:39:00,34.1,29.2,30.28,NE,54,5.8,5.8,82,0.00,CLR,,0.00,WeatherDisplay:10.37,2013-03-26 00:39:00,
2013-03-26 00:44:00,34.1,29.2,30.28,East,93,4.6,4.6,82,0.00,CLR,,0.00,WeatherDisplay:10.37,2013-03-26 00:44:00,
2013-03-26 00:49:00,34.1,29.2,30.28,East,85,5.8,5.8,82,0.00,CLR,,0.00,WeatherDisplay:10.37,2013-03-26 00:49:00,
2013-03-26 00:54:00,34.0,29.1,30.28,East,86,5.8,5.8,82,0.00,CLR,,0.00,WeatherDisplay:10.37,2013-03-26 00:54:00,
2013-03-26 00:59:00,34.0,28.8,30.27,ENE,63,5.8,6.4,81,0.00,CLR,,0.00,WeatherDisplay:10.37,2013-03-26 00:59:00,
2013-03-26 01:04:00,34.0,28.8,30.27,ESE,109,9.2,9.2,81,0.00,CLR,,0.00,WeatherDisplay:10.37,2013-03-26 01:04:00,
2013-03-26 01:09:00,33.9,28.4,30.27,ESE,112,5.8,5.8,80,0.00,CLR,,0.00,WeatherDisplay:10.37,2013-03-26 01:09:00,
2013-03-26 01:15:00,33.9,28.4,30.27,NNE,32,3.5,3.5,80,0.00,CLR,,0.00,WeatherDisplay:10.37,2013-03-26 01:15:00,
2013-03-26 01:20:00,33.8,28.6,30.27,ENE,68,5.8,5.8,81,0.00,CLR,,0.00,WeatherDisplay:10.37,2013-03-26 01:20:00,
2013-03-26 01:25:00,33.9,28.7,30.27,East,81,5.0,5.0,81,0.00,CLR,,0.00,WeatherDisplay:10.37,2013-03-26 01:25:00,
2013-03-26 01:30:00,33.9,28.4,30.27,NE,36,5.8,5.8,80,0.00,CLR,,0.00,WeatherDisplay:10.37,2013-03-26 01:30:00,
2013-03-26 01:35:00,33.9,28.7,30.27,NE,47,4.6,4.6,81,0.00,CLR,,0.00,WeatherDisplay:10.37,2013-03-26 01:35:00,
2013-03-26 01:40:00,33.9,28.4,30.27,ENE,75,4.6,4.6,80,0.00,CLR,,0.00,WeatherDisplay:10.37,2013-03-26 01:40:00,
2013-03-26 01:45:00,33.8,28.3,30.27,ENE,74,3.5,3.5,80,0.00,CLR,,0.00,WeatherDisplay:10.37,2013-03-26 01:45:00,
2013-03-26 01:50:00,33.8,28.3,30.27,ENE,60,11.0,11.0,80,0.00,CLR,,0.00,WeatherDisplay:10.37,2013-03-26 01:50:00,
2013-03-26 01:55:00,33.9,28.4,30.27,ENE,57,10.4,10.4,80,0.00,CLR,,0.00,WeatherDisplay:10.37,2013-03-26 01:55:00,
2013-03-26 02:00:00,34.0,28.8,30.27,ENE,67,10.4,10.4,81,0.00,CLR,,0.00,WeatherDisplay:10.37,2013-03-26 02:00:00,
2013-03-26 02:05:00,33.9,28.4,30.27,NE,53,11.5,11.5,80,0.00,CLR,,0.00,WeatherDisplay:10.37,2013-03-26 02:05:00,
2013-03-26 02:10:00,33.8,28.3,30.27,ENE,77,12.7,12.7,80,0.00,CLR,,0.00,WeatherDisplay:10.37,2013-03-26 02:10:00,
2013-03-26 02:15:00,33.8,28.6,30.27,ENE,67,10.4,10.4,81,0.00,CLR,,0.00,WeatherDisplay:10.37,2013-03-26 02:15:00,
2013-03-26 02:20:00,33.8,28.6,30.26,ENE,70,8.1,8.1,81,0.00,CLR,,0.00,WeatherDisplay:10.37,2013-03-26 02:20:00,
2013-03-26 02:25:00,33.9,28.7,30.26,NE,51,13.8,13.8,81,0.00,CLR,,0.00,WeatherDisplay:10.37,2013-03-26 02:25:00,
2013-03-26 02:30:00,33.9,28.7,30.27,NNE,19,10.4,10.4,81,0.00,CLR,,0.00,WeatherDisplay:10.37,2013-03-26 02:30:00,
2013-03-26 02:35:00,33.8,28.6,30.26,ENE,68,8.1,8.1,81,0.00,CLR,,0.00,WeatherDisplay:10.37,2013-03-26 02:35:00,
2013-03-26 02:40:00,33.7,28.8,30.26,ENE,64,4.6,4.6,82,0.00,CLR,,0.00,WeatherDisplay:10.37,2013-03-26 02:40:00,
2013-03-26 02:45:00,33.6,28.7,30.26,ENE,57,8.1,8.1,82,0.00,CLR,,0.00,WeatherDisplay:10.37,2013-03-26 02:45:00,
2013-03-26 02:50:00,33.4,28.5,30.26,ENE,60,8.1,8.1,82,0.00,CLR,,0.00,WeatherDisplay:10.37,2013-03-26 02:50:00,
2013-03-26 02:55:00,33.3,28.4,30.26,NE,43,8.1,8.1,82,0.00,CLR,,0.00,WeatherDisplay:10.37,2013-03-26 02:55:00,
2013-03-26 03:00:00,33.4,28.8,30.26,NNW,342,4.6,4.6,83,0.00,CLR,,0.00,WeatherDisplay:10.37,2013-03-26 03:00:00,
2013-03-26 03:05:00,33.3,28.4,30.26,ENE,67,11.5,11.5,82,0.00,CLR,,0.00,WeatherDisplay:10.37,2013-03-26 03:05:00,
2013-03-26 03:10:00,33.5,28.9,30.26,ENE,57,9.2,9.2,83,0.00,CLR,,0.00,WeatherDisplay:10.37,2013-03-26 03:10:00,
2013-03-26 03:15:00,33.4,28.8,30.26,ENE,64,9.2,9.2,83,0.00,CLR,,0.00,WeatherDisplay:10.37,2013-03-26 03:15:00,
2013-03-26 03:20:00,33.1,29.1,30.26,ENE,68,11.5,11.5,85,0.00,CLR,,0.00,WeatherDisplay:10.37,2013-03-26 03:20:00,
2013-03-26 03:25:00,32.9,29.2,30.26,NW,320,8.1,8.1,86,0.00,CLR,,0.00,WeatherDisplay:10.37,2013-03-26 03:25:00,
2013-03-26 03:30:00,32.9,29.5,30.25,ENE,65,7.0,7.0,87,0.00,CLR,,0.00,WeatherDisplay:10.37,2013-03-26 03:30:00,
2013-03-26 03:35:00,33.0,29.6,30.25,NE,39,11.5,11.5,87,0.00,CLR,,0.00,WeatherDisplay:10.37,2013-03-26 03:35:00,
2013-03-26 03:40:00,33.0,29.6,30.25,NE,50,6.9,6.9,87,0.00,CLR,,0.00,WeatherDisplay:10.37,2013-03-26 03:40:00,
2013-03-26 03:45:00,32.9,29.5,30.25,ENE,71,8.1,8.1,87,0.00,CLR,,0.00,WeatherDisplay:10.37,2013-03-26 03:45:00,
2013-03-26 03:50:00,32.8,29.1,30.25,ENE,75,4.0,4.0,86,0.00,CLR,,0.00,WeatherDisplay:10.37,2013-03-26 03:50:00,
2013-03-26 03:55:00,32.9,29.5,30.25,ENE,68,9.2,9.2,87,0.00,CLR,,0.00,WeatherDisplay:10.37,2013-03-26 03:55:00,
2013-03-26 04:00:00,32.9,29.2,30.25,ENE,61,3.5,3.5,86,0.00,CLR,,0.00,WeatherDisplay:10.37,2013-03-26 04:00:00,
2013-03-26 04:01:00,32.9,29.2,30.25,NE,44,4.6,4.6,86,0.00,CLR,,0.00,WeatherDisplay:10.37,2013-03-26 04:01:00,
2013-03-26 04:02:00,32.9,29.2,30.25,NNE,13,3.5,3.5,86,0.00,CLR,,0.00,WeatherDisplay:10.37,2013-03-26 04:02:00,
2013-03-26 04:07:00,32.8,29.1,30.25,WSW,258,3.5,3.5,86,0.00,CLR,,0.00,WeatherDisplay:10.37,2013-03-26 04:07:00,
2013-03-26 04:12:00,32.8,29.1,30.25,NW,310,1.2,0.0,86,0.00,CLR,,0.00,WeatherDisplay:10.37,2013-03-26 04:12:00,
2013-03-26 04:17:00,32.8,29.1,30.25,WNW,289,1.2,1.2,86,0.00,CLR,,0.00,WeatherDisplay:10.37,2013-03-26 04:17:00,
2013-03-26 04:22:00,32.8,28.8,30.25,NW,325,3.5,3.5,85,0.00,CLR,,0.00,WeatherDisplay:10.37,2013-03-26 04:22:00,
2013-03-26 04:27:00,32.8,28.8,30.25,North,1,3.5,3.5,85,0.00,CLR,,0.00,WeatherDisplay:10.37,2013-03-26 04:27:00,
2013-03-26 04:32:00,32.8,28.8,30.25,North,10,4.6,4.6,85,0.00,CLR,,0.00,WeatherDisplay:10.37,2013-03-26 04:32:00,
2013-03-26 04:37:00,32.9,28.6,30.25,NNW,342,2.3,2.3,84,0.00,CLR,,0.00,WeatherDisplay:10.37,2013-03-26 04:37:00,
2013-03-26 04:42:00,32.8,28.5,30.25,NNW,328,1.2,0.0,84,0.00,CLR,,0.00,WeatherDisplay:10.37,2013-03-26 04:42:00,
2013-03-26 04:47:00,32.7,28.7,30.25,NW,323,2.3,2.3,85,0.00,CLR,,0.00,WeatherDisplay:10.37,2013-03-26 04:47:00,
2013-03-26 04:52:00,32.5,28.5,30.25,NW,323,0.0,0.0,85,0.00,CLR,,0.00,WeatherDisplay:10.37,2013-03-26 04:52:00,
2013-03-26 04:57:00,32.4,28.4,30.25,WNW,283,1.2,0.0,85,0.00,CLR,,0.00,WeatherDisplay:10.37,2013-03-26 04:57:00,
2013-03-26 05:02:00,32.4,28.7,30.25,NW,309,1.2,1.2,86,0.00,CLR,,0.00,WeatherDisplay:10.37,2013-03-26 05:02:00,
2013-03-26 05:07:00,32.5,28.8,30.25,NW,308,1.2,1.2,86,0.00,CLR,,0.00,WeatherDisplay:10.37,2013-03-26 05:07:00,
2013-03-26 05:13:00,32.6,28.9,30.25,NNW,347,3.5,3.5,86,0.00,CLR,,0.00,WeatherDisplay:10.37,2013-03-26 05:13:00,
2013-03-26 05:18:00,32.7,28.7,30.25,NW,313,2.3,2.3,85,0.00,CLR,,0.00,WeatherDisplay:10.37,2013-03-26 05:18:00,
2013-03-26 05:23:00,32.6,28.6,30.25,North,5,2.3,2.3,85,0.00,CLR,,0.00,WeatherDisplay:10.37,2013-03-26 05:23:00,
2013-03-26 05:28:00,32.7,28.7,30.25,WNW,291,2.3,2.3,85,0.00,CLR,,0.00,WeatherDisplay:10.37,2013-03-26 05:28:00,
2013-03-26 05:33:00,32.9,28.9,30.25,NNW,336,1.2,1.2,85,0.00,CLR,,0.00,WeatherDisplay:10.37,2013-03-26 05:33:00,
2013-03-26 05:38:00,33.0,28.7,30.25,NNW,333,1.2,0.0,84,0.00,CLR,,0.00,WeatherDisplay:10.37,2013-03-26 05:38:00,
2013-03-26 05:43:00,33.0,28.7,30.25,NE,40,4.6,4.6,84,0.00,CLR,,0.00,WeatherDisplay:10.37,2013-03-26 05:43:00,
2013-03-26 05:48:00,33.2,28.9,30.25,North,1,5.8,5.8,84,0.00,CLR,,0.00,WeatherDisplay:10.37,2013-03-26 05:48:00,
2013-03-26 05:53:00,33.3,28.7,30.25,NNW,341,3.5,3.5,83,0.00,CLR,,0.00,WeatherDisplay:10.37,2013-03-26 05:53:00,
2013-03-26 05:58:00,33.2,28.6,30.25,North,354,4.6,4.6,83,0.00,CLR,,0.00,WeatherDisplay:10.37,2013-03-26 05:58:00,
2013-03-26 06:03:00,33.2,28.6,30.25,North,359,2.3,2.3,83,0.00,CLR,,0.00,WeatherDisplay:10.37,2013-03-26 06:03:00,
2013-03-26 06:08:00,33.3,28.7,30.25,NNW,338,4.6,4.6,83,0.00,CLR,,0.00,WeatherDisplay:10.37,2013-03-26 06:08:00,
2013-03-26 06:13:00,33.3,28.7,30.25,North,359,4.6,4.6,83,0.00,CLR,,0.00,WeatherDisplay:10.37,2013-03-26 06:13:00,
2013-03-26 06:18:00,33.4,28.8,30.25,NNW,344,4.0,4.0,83,0.00,CLR,,0.00,WeatherDisplay:10.37,2013-03-26 06:18:00,
2013-03-26 06:23:00,33.5,28.9,30.25,ENE,71,4.6,4.6,83,0.00,CLR,,0.00,WeatherDisplay:10.37,2013-03-26 06:23:00,
2013-03-26 06:28:00,33.5,28.9,30.25,NE,51,5.8,5.8,83,0.00,CLR,,0.00,WeatherDisplay:10.37,2013-03-26 06:28:00,
2013-03-26 06:33:00,33.6,29.0,30.25,NNW,344,6.9,6.9,83,0.00,CLR,,0.00,WeatherDisplay:10.37,2013-03-26 06:33:00,
2013-03-26 06:38:00,33.6,29.0,30.25,North,4,4.6,4.6,83,0.00,CLR,,0.00,WeatherDisplay:10.37,2013-03-26 06:38:00,
2013-03-26 06:43:00,33.7,29.1,30.25,NE,39,4.6,4.6,83,0.00,CLR,,0.00,WeatherDisplay:10.37,2013-03-26 06:43:00,
2013-03-26 06:48:00,33.6,29.3,30.25,NE,51,5.8,5.8,84,0.00,CLR,,0.00,WeatherDisplay:10.37,2013-03-26 06:48:00,
2013-03-26 06:53:00,33.6,29.3,30.25,NE,39,4.6,4.6,84,0.00,CLR,,0.00,WeatherDisplay:10.37,2013-03-26 06:53:00,
2013-03-26 06:58:00,33.7,29.7,30.25,NE,54,4.6,4.6,85,0.00,CLR,,0.00,WeatherDisplay:10.37,2013-03-26 06:58:00,
2013-03-26 07:03:00,33.6,29.6,30.25,East,79,4.6,4.6,85,0.00,CLR,,0.00,WeatherDisplay:10.37,2013-03-26 07:03:00,
2013-03-26 07:09:00,33.5,29.8,30.25,NNE,32,4.6,4.6,86,0.00,CLR,,0.00,WeatherDisplay:10.37,2013-03-26 07:09:00,
2013-03-26 07:14:00,33.2,29.8,30.25,ENE,63,4.6,4.6,87,0.00,CLR,,0.00,WeatherDisplay:10.37,2013-03-26 07:14:00,
2013-03-26 07:20:00,33.0,29.8,30.25,ENE,68,4.6,4.6,88,0.00,CLR,,0.00,WeatherDisplay:10.37,2013-03-26 07:20:00,
2013-03-26 07:26:00,32.9,29.7,30.25,NE,51,5.0,5.0,88,0.00,CLR,,0.00,WeatherDisplay:10.37,2013-03-26 07:26:00,
2013-03-26 07:31:00,32.8,29.9,30.26,ENE,65,3.0,3.0,89,0.00,CLR,,0.00,WeatherDisplay:10.37,2013-03-26 07:31:00,
2013-03-26 07:36:00,32.7,29.8,30.26,North,8,2.3,2.3,89,0.00,CLR,,0.00,WeatherDisplay:10.37,2013-03-26 07:36:00,
2013-03-26 07:42:00,32.6,30.0,30.26,North,352,3.5,3.5,90,0.00,CLR,,0.00,WeatherDisplay:10.37,2013-03-26 07:42:00,
2013-03-26 07:47:00,32.6,30.0,30.26,NNW,345,5.8,5.8,90,0.00,CLR,,0.00,WeatherDisplay:10.37,2013-03-26 07:47:00,
2013-03-26 07:53:00,32.8,30.2,30.26,NNW,347,5.8,5.8,90,0.00,CLR,,0.00,WeatherDisplay:10.37,2013-03-26 07:53:00,
2013-03-26 07:59:00,33.0,30.4,30.26,NE,51,3.5,3.5,90,0.00,CLR,,0.00,WeatherDisplay:10.37,2013-03-26 07:59:00,
2013-03-26 08:04:00,33.6,31.3,30.26,NE,44,2.3,2.3,91,0.00,CLR,,0.00,WeatherDisplay:10.37,2013-03-26 08:04:00,
2013-03-26 08:09:00,34.3,31.7,30.25,NE,44,3.5,3.5,90,0.00,CLR,,0.00,WeatherDisplay:10.37,2013-03-26 08:09:00,
2013-03-26 08:14:00,34.8,31.6,30.25,NNE,30,4.6,4.6,88,0.00,CLR,,0.00,WeatherDisplay:10.37,2013-03-26 08:14:00,
2013-03-26 08:19:00,34.8,31.3,30.25,NNW,348,4.6,4.7,87,0.00,CLR,,0.00,WeatherDisplay:10.37,2013-03-26 08:19:00,
2013-03-26 08:24:00,34.6,31.1,30.25,ENE,70,6.9,6.9,87,0.00,CLR,,0.00,WeatherDisplay:10.37,2013-03-26 08:24:00,
2013-03-26 08:29:00,34.5,31.0,30.25,ENE,74,4.6,4.6,87,0.00,CLR,,0.00,WeatherDisplay:10.37,2013-03-26 08:29:00,
2013-03-26 08:34:00,34.8,31.0,30.25,NE,54,5.8,5.8,86,0.00,CLR,,0.00,WeatherDisplay:10.37,2013-03-26 08:34:00,
2013-03-26 08:39:00,35.0,31.2,30.25,NW,317,0.0,0.0,86,0.00,CLR,,0.00,WeatherDisplay:10.37,2013-03-26 08:39:00,
2013-03-26 08:44:00,35.2,31.1,30.25,ENE,63,6.0,6.0,85,0.00,CLR,,0.00,WeatherDisplay:10.37,2013-03-26 08:44:00,
2013-03-26 08:49:00,35.2,30.9,30.25,NE,34,3.5,3.5,84,0.00,CLR,,0.00,WeatherDisplay:10.37,2013-03-26 08:49:00,
2013-03-26 08:54:00,35.3,30.9,30.25,NE,48,9.2,9.2,84,0.00,CLR,,0.00,WeatherDisplay:10.37,2013-03-26 08:54:00,
2013-03-26 08:59:00,35.4,31.0,30.25,ENE,65,5.0,5.0,84,0.00,CLR,,0.00,WeatherDisplay:10.37,2013-03-26 08:59:00,
2013-03-26 09:04:00,35.3,30.7,30.25,ENE,70,8.1,8.1,83,0.00,CLR,,0.00,WeatherDisplay:10.37,2013-03-26 09:04:00,
2013-03-26 09:09:00,35.3,30.9,30.24,ENE,61,6.9,6.9,84,0.00,CLR,,0.00,WeatherDisplay:10.37,2013-03-26 09:09:00,
2013-03-26 09:15:00,35.4,30.8,30.24,ENE,63,10.4,10.4,83,0.00,CLR,,0.00,WeatherDisplay:10.37,2013-03-26 09:15:00,
2013-03-26 09:20:00,35.3,30.7,30.24,ENE,70,10.4,10.4,83,0.00,CLR,,0.00,WeatherDisplay:10.37,2013-03-26 09:20:00,
2013-03-26 09:25:00,35.2,30.6,30.24,NNE,15,11.5,11.5,83,0.00,CLR,,0.00,WeatherDisplay:10.37,2013-03-26 09:25:00,
2013-03-26 09:30:00,35.4,31.0,30.24,North,3,8.1,8.1,84,0.00,CLR,,0.00,WeatherDisplay:10.37,2013-03-26 09:30:00,
2013-03-26 09:35:00,35.9,31.2,30.24,ENE,67,12.7,12.7,83,0.00,CLR,,0.00,WeatherDisplay:10.37,2013-03-26 09:35:00,
2013-03-26 09:41:00,36.3,31.0,30.24,ENE,64,11.5,11.5,81,0.00,CLR,,0.00,WeatherDisplay:10.37,2013-03-26 09:41:00,
2013-03-26 09:46:00,36.2,30.9,30.24,ENE,71,11.5,11.5,81,0.00,CLR,,0.00,WeatherDisplay:10.37,2013-03-26 09:46:00,
2013-03-26 09:51:00,36.2,30.9,30.24,ESE,112,10.4,10.4,81,0.00,CLR,,0.00,WeatherDisplay:10.37,2013-03-26 09:51:00,
2013-03-26 09:56:00,36.1,30.5,30.24,ENE,72,8.0,8.0,80,0.00,CLR,,0.00,WeatherDisplay:10.37,2013-03-26 09:56:00,
2013-03-26 10:01:00,36.1,31.1,30.24,ENE,74,6.9,6.9,82,0.01,RA,,0.01,WeatherDisplay:10.37,2013-03-26 10:01:00,
2013-03-26 10:06:00,36.2,30.9,30.24,ENE,66,10.4,10.4,81,0.01,RA,,0.01,WeatherDisplay:10.37,2013-03-26 10:06:00,
2013-03-26 10:11:00,35.9,30.6,30.24,NNE,33,10.4,10.4,81,0.01,CLR,,0.01,WeatherDisplay:10.37,2013-03-26 10:11:00,
2013-03-26 10:16:00,35.5,30.8,30.24,ENE,65,14.0,14.0,83,0.01,CLR,,0.01,WeatherDisplay:10.37,2013-03-26 10:16:00,
2013-03-26 10:22:00,35.1,30.8,30.24,East,85,12.0,12.0,84,0.01,CLR,,0.01,WeatherDisplay:10.37,2013-03-26 10:22:00,
2013-03-26 10:27:00,34.8,31.0,30.24,East,82,9.0,9.0,86,0.01,CLR,,0.01,WeatherDisplay:10.37,2013-03-26 10:27:00,
2013-03-26 10:32:00,34.4,31.2,30.24,NE,47,11.5,11.5,88,0.01,CLR,,0.01,WeatherDisplay:10.37,2013-03-26 10:32:00,
2013-03-26 10:37:00,34.3,31.7,30.24,SE,124,8.1,8.1,90,0.01,CLR,,0.01,WeatherDisplay:10.37,2013-03-26 10:37:00,
2013-03-26 10:42:00,34.4,31.8,30.24,ENE,57,9.2,9.2,90,0.01,CLR,,0.01,WeatherDisplay:10.37,2013-03-26 10:42:00,
2013-03-26 10:47:00,34.7,32.1,30.24,ENE,68,11.5,11.5,90,0.01,CLR,,0.01,WeatherDisplay:10.37,2013-03-26 10:47:00,
2013-03-26 10:52:00,35.1,32.2,30.23,East,100,8.1,8.1,89,0.01,CLR,,0.01,WeatherDisplay:10.37,2013-03-26 10:52:00,
2013-03-26 10:57:00,35.6,32.1,30.23,East,83,6.9,6.9,87,0.01,CLR,,0.01,WeatherDisplay:10.37,2013-03-26 10:57:00,
2013-03-26 11:02:00,36.3,32.5,30.23,North,10,8.1,8.1,86,0.00,CLR,,0.01,WeatherDisplay:10.37,2013-03-26 11:02:00,
2013-03-26 11:07:00,37.0,31.7,30.23,ENE,57,13.0,13.0,81,0.00,CLR,,0.01,WeatherDisplay:10.37,2013-03-26 11:07:00,
2013-03-26 11:13:00,37.2,31.9,30.23,ENE,67,11.5,11.5,81,0.00,CLR,,0.01,WeatherDisplay:10.37,2013-03-26 11:13:00,
2013-03-26 11:18:00,37.2,31.0,30.23,ENE,67,11.5,11.5,78,0.00,CLR,,0.01,WeatherDisplay:10.37,2013-03-26 11:18:00,
2013-03-26 11:23:00,37.2,31.0,30.23,East,91,15.0,15.0,78,0.00,CLR,,0.01,WeatherDisplay:10.37,2013-03-26 11:23:00,
2013-03-26 11:29:00,37.1,29.9,30.22,NE,46,16.1,16.1,75,0.00,CLR,,0.01,WeatherDisplay:10.37,2013-03-26 11:29:00,
2013-03-26 11:35:00,36.5,30.0,30.23,NE,48,20.7,20.7,77,0.00,CLR,,0.01,WeatherDisplay:10.37,2013-03-26 11:35:00,
2013-03-26 11:40:00,36.0,30.1,30.23,ENE,78,16.1,16.1,79,0.00,CLR,,0.01,WeatherDisplay:10.37,2013-03-26 11:40:00,
2013-03-26 11:45:00,35.6,30.3,30.23,ENE,59,13.8,13.8,81,0.00,CLR,,0.01,WeatherDisplay:10.37,2013-03-26 11:45:00,
2013-03-26 11:50:00,35.0,30.9,30.23,ENE,61,8.1,8.1,85,0.00,CLR,,0.01,WeatherDisplay:10.37,2013-03-26 11:50:00,
2013-03-26 11:55:00,34.7,30.9,30.22,ENE,68,11.5,11.5,86,0.00,CLR,,0.01,WeatherDisplay:10.37,2013-03-26 11:55:00,
2013-03-26 12:00:00,35.0,31.2,30.22,NE,40,8.1,8.1,86,0.00,CLR,,0.01,WeatherDisplay:10.37,2013-03-26 12:00:00,
2013-03-26 12:05:00,35.5,31.7,30.22,WNW,303,3.5,3.5,86,0.00,CLR,,0.01,WeatherDisplay:10.37,2013-03-26 12:05:00,
2013-03-26 12:12:00,36.3,31.6,30.22,NNE,15,9.2,9.2,83,0.00,CLR,,0.01,WeatherDisplay:10.37,2013-03-26 12:12:00,
2013-03-26 12:17:00,36.9,31.3,30.22,North,6,10.0,10.0,80,0.00,CLR,,0.01,WeatherDisplay:10.37,2013-03-26 12:17:00,
2013-03-26 12:22:00,37.1,30.9,30.21,ENE,67,11.5,11.5,78,0.00,CLR,,0.01,WeatherDisplay:10.37,2013-03-26 12:22:00,
2013-03-26 12:27:00,37.3,30.7,30.21,East,84,12.7,12.7,77,0.00,CLR,,0.01,WeatherDisplay:10.37,2013-03-26 12:27:00,
2013-03-26 12:32:00,37.6,30.1,30.21,ENE,64,11.5,11.5,74,0.00,CLR,,0.01,WeatherDisplay:10.37,2013-03-26 12:32:00,
2013-03-26 12:37:00,37.7,30.5,30.21,ENE,60,8.1,8.1,75,0.00,CLR,,0.01,WeatherDisplay:10.37,2013-03-26 12:37:00,
2013-03-26 12:42:00,37.8,30.3,30.21,ENE,72,13.8,13.8,74,0.00,CLR,,0.01,WeatherDisplay:10.37,2013-03-26 12:42:00,
2013-03-26 12:48:00,37.9,30.4,30.21,NNE,15,11.5,11.5,74,0.00,CLR,,0.01,WeatherDisplay:10.37,2013-03-26 12:48:00,
2013-03-26 12:54:00,38.6,30.7,30.20,ENE,77,9.2,9.2,73,0.00,CLR,,0.01,WeatherDisplay:10.37,2013-03-26 12:54:00,
2013-03-26 12:59:00,38.4,29.8,30.20,East,81,17.3,17.3,71,0.00,CLR,,0.01,WeatherDisplay:10.37,2013-03-26 12:59:00,
2013-03-26 13:04:00,38.3,28.3,30.20,North,356,16.1,16.1,67,0.00,CLR,,0.01,WeatherDisplay:10.37,2013-03-26 13:04:00,
2013-03-26 13:09:00,37.9,29.7,30.20,East,93,17.3,17.3,72,0.00,CLR,,0.01,WeatherDisplay:10.37,2013-03-26 13:09:00,
2013-03-26 13:14:00,37.3,30.1,30.21,ESE,102,14.0,14.0,75,0.00,CLR,,0.01,WeatherDisplay:10.37,2013-03-26 13:14:00,
2013-03-26 13:19:00,37.1,30.2,30.21,ENE,61,13.8,13.8,76,0.00,CLR,,0.01,WeatherDisplay:10.37,2013-03-26 13:19:00,
2013-03-26 13:25:00,37.2,30.3,30.20,NE,54,16.1,16.1,76,0.00,CLR,,0.01,WeatherDisplay:10.37,2013-03-26 13:25:00,
2013-03-26 13:31:00,37.2,30.0,30.20,NE,34,13.0,13.0,75,0.00,CLR,,0.01,WeatherDisplay:10.37,2013-03-26 13:31:00,
2013-03-26 13:37:00,37.7,30.2,30.20,NW,311,12.7,12.7,74,0.00,CLR,,0.01,WeatherDisplay:10.37,2013-03-26 13:37:00,
2013-03-26 13:42:00,37.6,30.1,30.20,ENE,61,17.3,17.3,74,0.00,CLR,,0.01,WeatherDisplay:10.37,2013-03-26 13:42:00,
2013-03-26 13:47:00,37.4,30.5,30.20,NNE,14,11.5,11.5,76,0.00,CLR,,0.01,WeatherDisplay:10.37,2013-03-26 13:47:00,
2013-03-26 13:53:00,37.2,30.3,30.20,North,8,9.2,9.2,76,0.00,CLR,,0.01,WeatherDisplay:10.37,2013-03-26 13:53:00,
2013-03-26 13:58:00,37.1,30.2,30.20,North,3,8.1,8.1,76,0.00,CLR,,0.01,WeatherDisplay:10.37,2013-03-26 13:58:00,
2013-03-26 14:03:00,37.5,30.6,30.19,NE,47,13.0,13.0,76,0.00,CLR,,0.01,WeatherDisplay:10.37,2013-03-26 14:03:00,
2013-03-26 14:08:00,37.7,30.2,30.19,NE,53,11.0,11.0,74,0.00,CLR,,0.01,WeatherDisplay:10.37,2013-03-26 14:08:00,
2013-03-26 14:13:00,37.7,30.2,30.19,ENE,66,11.5,11.5,74,0.00,CLR,,0.01,WeatherDisplay:10.37,2013-03-26 14:13:00,
2013-03-26 14:18:00,37.5,30.3,30.20,East,82,11.5,11.5,75,0.00,CLR,,0.01,WeatherDisplay:10.37,2013-03-26 14:18:00,
2013-03-26 14:23:00,37.1,29.6,30.20,ENE,58,18.0,18.0,74,0.00,CLR,,0.01,WeatherDisplay:10.37,2013-03-26 14:23:00,
2013-03-26 14:28:00,36.8,29.6,30.20,ENE,63,11.5,11.5,75,0.00,CLR,,0.01,WeatherDisplay:10.37,2013-03-26 14:28:00,
2013-03-26 14:33:00,37.0,29.5,30.19,East,96,14.0,14.0,74,0.00,CLR,,0.01,WeatherDisplay:10.37,2013-03-26 14:33:00,
2013-03-26 14:38:00,37.4,30.2,30.20,ENE,67,11.5,11.5,75,0.00,CLR,,0.01,WeatherDisplay:10.37,2013-03-26 14:38:00,
2013-03-26 14:43:00,37.9,30.0,30.19,North,1,13.8,13.8,73,0.00,CLR,,0.01,WeatherDisplay:10.37,2013-03-26 14:43:00,
2013-03-26 14:48:00,38.3,29.4,30.19,ENE,64,15.0,15.0,70,0.00,CLR,,0.01,WeatherDisplay:10.37,2013-03-26 14:48:00,
2013-03-26 14:53:00,38.4,28.8,30.19,East,86,11.0,11.0,68,0.00,CLR,,0.01,WeatherDisplay:10.37,2013-03-26 14:53:00,
2013-03-26 14:59:00,37.5,28.9,30.19,North,1,16.1,16.1,71,0.00,CLR,,0.01,WeatherDisplay:10.37,2013-03-26 14:59:00,
2013-03-26 15:04:00,36.6,28.8,30.19,NNW,336,10.4,10.4,73,0.00,CLR,,0.01,WeatherDisplay:10.37,2013-03-26 15:04:00,
2013-03-26 15:09:00,36.5,28.7,30.19,WNW,297,11.5,11.5,73,0.00,CLR,,0.01,WeatherDisplay:10.37,2013-03-26 15:09:00,
2013-03-26 15:14:00,36.6,29.4,30.19,NNE,13,9.0,9.0,75,0.00,CLR,,0.01,WeatherDisplay:10.37,2013-03-26 15:14:00,
2013-03-26 15:19:00,36.7,29.5,30.19,NNE,13,11.5,11.5,75,0.00,CLR,,0.01,WeatherDisplay:10.37,2013-03-26 15:19:00,
2013-03-26 15:24:00,37.4,29.9,30.19,ENE,60,6.9,6.9,74,0.00,CLR,,0.01,WeatherDisplay:10.37,2013-03-26 15:24:00,
2013-03-26 15:30:00,38.0,30.1,30.19,North,356,10.4,10.4,73,0.00,CLR,,0.01,WeatherDisplay:10.37,2013-03-26 15:30:00,
2013-03-26 15:35:00,38.6,30.7,30.19,ENE,60,15.0,15.0,73,0.00,CLR,,0.01,WeatherDisplay:10.37,2013-03-26 15:35:00,
2013-03-26 15:41:00,38.5,29.2,30.18,NNE,26,13.8,13.8,69,0.00,CLR,,0.01,WeatherDisplay:10.37,2013-03-26 15:41:00,
2013-03-26 15:46:00,38.3,29.4,30.18,NE,43,11.5,11.5,70,0.00,CLR,,0.01,WeatherDisplay:10.37,2013-03-26 15:46:00,
2013-03-26 15:52:00,37.7,29.8,30.19,NE,53,19.6,19.6,73,0.00,CLR,,0.01,WeatherDisplay:10.37,2013-03-26 15:52:00,
2013-03-26 15:58:00,36.8,29.9,30.19,East,98,16.1,16.1,76,0.00,CLR,,0.01,WeatherDisplay:10.37,2013-03-26 15:58:00,
2013-03-26 16:03:00,36.3,30.1,30.19,NNE,18,10.4,10.4,78,0.00,CLR,,0.01,WeatherDisplay:10.37,2013-03-26 16:03:00,
2013-03-26 16:08:00,36.0,30.1,30.19,East,84,8.1,8.1,79,0.00,CLR,,0.01,WeatherDisplay:10.37,2013-03-26 16:08:00,
2013-03-26 16:13:00,35.9,29.4,30.19,NNE,25,11.5,11.5,77,0.00,CLR,,0.01,WeatherDisplay:10.37,2013-03-26 16:13:00,
2013-03-26 16:18:00,36.0,29.2,30.19,East,85,10.4,10.4,76,0.00,CLR,,0.01,WeatherDisplay:10.37,2013-03-26 16:18:00,
2013-03-26 16:23:00,36.1,29.3,30.19,NE,44,9.2,9.2,76,0.00,CLR,,0.01,WeatherDisplay:10.37,2013-03-26 16:23:00,
2013-03-26 16:28:00,36.3,29.5,30.19,NW,325,6.9,6.9,76,0.00,CLR,,0.01,WeatherDisplay:10.37,2013-03-26 16:28:00,
2013-03-26 16:33:00,36.4,29.2,30.18,ENE,70,8.1,8.1,75,0.00,CLR,,0.01,WeatherDisplay:10.37,2013-03-26 16:33:00,
2013-03-26 16:38:00,36.5,29.3,30.18,NNE,32,10.4,10.4,75,0.00,CLR,,0.01,WeatherDisplay:10.37,2013-03-26 16:38:00,
2013-03-26 16:43:00,36.7,28.9,30.18,NE,39,13.8,13.8,73,0.00,CLR,,0.01,WeatherDisplay:10.37,2013-03-26 16:43:00,
2013-03-26 16:48:00,36.8,28.6,30.18,North,359,12.7,12.7,72,0.00,CLR,,0.01,WeatherDisplay:10.37,2013-03-26 16:48:00,
2013-03-26 16:54:00,36.9,28.7,30.18,ESE,110,12.7,12.7,72,0.00,CLR,,0.01,WeatherDisplay:10.37,2013-03-26 16:54:00,
2013-03-26 16:59:00,36.9,28.7,30.18,ENE,70,11.5,11.5,72,0.00,CLR,,0.01,WeatherDisplay:10.37,2013-03-26 16:59:00,
2013-03-26 17:04:00,36.8,29.0,30.18,ENE,61,8.1,8.1,73,0.00,CLR,,0.01,WeatherDisplay:10.37,2013-03-26 17:04:00,
2013-03-26 17:09:00,36.7,28.9,30.18,NNE,23,11.5,11.5,73,0.00,CLR,,0.01,WeatherDisplay:10.37,2013-03-26 17:09:00,
2013-03-26 17:14:00,36.5,28.7,30.18,NNE,20,5.8,5.8,73,0.00,CLR,,0.01,WeatherDisplay:10.37,2013-03-26 17:14:00,
2013-03-26 17:20:00,36.0,29.2,30.18,North,356,11.5,11.5,76,0.00,CLR,,0.01,WeatherDisplay:10.37,2013-03-26 17:20:00,
2013-03-26 17:25:00,35.7,29.2,30.18,NNE,23,8.1,8.1,77,0.00,CLR,,0.01,WeatherDisplay:10.37,2013-03-26 17:25:00,
2013-03-26 17:30:00,35.8,29.3,30.18,North,356,6.9,6.9,77,0.00,CLR,,0.01,WeatherDisplay:10.37,2013-03-26 17:30:00,
2013-03-26 17:35:00,35.7,29.2,30.18,North,359,5.8,5.8,77,0.00,CLR,,0.01,WeatherDisplay:10.37,2013-03-26 17:35:00,
2013-03-26 17:40:00,35.6,29.1,30.18,NE,47,8.0,8.0,77,0.00,CLR,,0.01,WeatherDisplay:10.37,2013-03-26 17:40:00,
2013-03-26 17:45:00,36.0,29.5,30.18,NE,40,5.8,5.8,77,0.00,CLR,,0.01,WeatherDisplay:10.37,2013-03-26 17:45:00,
2013-03-26 17:50:00,36.6,29.7,30.18,NE,40,4.6,4.6,76,0.00,CLR,,0.01,WeatherDisplay:10.37,2013-03-26 17:50:00,
2013-03-26 17:55:00,37.1,29.9,30.18,NE,36,3.5,3.5,75,0.00,CLR,,0.01,WeatherDisplay:10.37,2013-03-26 17:55:00,
2013-03-26 18:00:00,37.2,29.7,30.18,North,2,6.9,6.9,74,0.00,CLR,,0.01,WeatherDisplay:10.37,2013-03-26 18:00:00,
2013-03-26 18:06:00,36.9,28.7,30.18,NE,41,4.6,4.6,72,0.00,CLR,,0.01,WeatherDisplay:10.37,2013-03-26 18:06:00,
2013-03-26 18:11:00,36.7,28.9,30.19,ENE,57,11.0,11.0,73,0.00,CLR,,0.01,WeatherDisplay:10.37,2013-03-26 18:11:00,
2013-03-26 18:17:00,36.6,28.4,30.19,East,86,12.7,12.7,72,0.00,CLR,,0.01,WeatherDisplay:10.37,2013-03-26 18:17:00,
2013-03-26 18:22:00,36.5,28.7,30.19,ENE,60,13.8,13.8,73,0.00,CLR,,0.01,WeatherDisplay:10.37,2013-03-26 18:22:00,
2013-03-26 18:28:00,36.1,28.6,30.19,ENE,60,17.3,17.3,74,0.00,CLR,,0.01,WeatherDisplay:10.37,2013-03-26 18:28:00,
2013-03-26 18:33:00,35.7,29.2,30.19,NNE,25,9.2,9.2,77,0.00,CLR,,0.01,WeatherDisplay:10.37,2013-03-26 18:33:00,
2013-03-26 18:38:00,35.0,29.1,30.19,NE,47,10.0,10.0,79,0.00,CLR,,0.01,WeatherDisplay:10.37,2013-03-26 18:38:00,
2013-03-26 18:43:00,34.9,29.4,30.19,NW,314,5.8,5.8,80,0.00,CLR,,0.01,WeatherDisplay:10.37,2013-03-26 18:43:00,
2013-03-26 18:48:00,34.7,29.5,30.19,NNW,338,4.6,4.6,81,0.00,CLR,,0.01,WeatherDisplay:10.37,2013-03-26 18:48:00,
2013-03-26 18:53:00,34.6,29.4,30.19,North,3,5.8,5.8,81,0.00,CLR,,0.01,WeatherDisplay:10.37,2013-03-26 18:53:00,
2013-03-26 18:58:00,34.4,28.9,30.19,North,351,5.8,5.8,80,0.00,CLR,,0.01,WeatherDisplay:10.37,2013-03-26 18:58:00,
2013-03-26 19:04:00,34.4,28.2,30.19,ENE,63,11.5,11.5,78,0.00,CLR,,0.01,WeatherDisplay:10.37,2013-03-26 19:04:00,
2013-03-26 19:09:00,34.4,28.2,30.19,NNW,342,6.9,6.9,78,0.00,CLR,,0.01,WeatherDisplay:10.37,2013-03-26 19:09:00,
2013-03-26 19:14:00,34.4,28.2,30.20,NE,39,6.0,6.0,78,0.00,CLR,,0.01,WeatherDisplay:10.37,2013-03-26 19:14:00,
2013-03-26 19:20:00,34.3,28.2,30.20,ENE,57,9.2,9.2,78,0.00,CLR,,0.01,WeatherDisplay:10.37,2013-03-26 19:20:00,
2013-03-26 19:25:00,34.2,28.1,30.20,ESE,108,10.4,10.4,78,0.00,CLR,,0.01,WeatherDisplay:10.37,2013-03-26 19:25:00,
2013-03-26 19:31:00,34.0,27.9,30.20,ENE,61,4.6,4.6,78,0.00,CLR,,0.01,WeatherDisplay:10.37,2013-03-26 19:31:00,
2013-03-26 19:36:00,33.8,28.0,30.20,NNE,23,9.2,9.2,79,0.00,CLR,,0.01,WeatherDisplay:10.37,2013-03-26 19:36:00,
2013-03-26 19:42:00,33.5,28.0,30.20,North,5,3.5,3.5,80,0.00,CLR,,0.01,WeatherDisplay:10.37,2013-03-26 19:42:00,
2013-03-26 19:47:00,33.4,28.2,30.20,North,3,9.2,9.2,81,0.00,CLR,,0.01,WeatherDisplay:10.37,2013-03-26 19:47:00,
2013-03-26 19:52:00,33.2,28.3,30.20,North,10,3.5,3.5,82,0.00,CLR,,0.01,WeatherDisplay:10.37,2013-03-26 19:52:00,
2013-03-26 19:57:00,33.2,28.3,30.20,North,8,5.8,5.8,82,0.00,CLR,,0.01,WeatherDisplay:10.37,2013-03-26 19:57:00,
2013-03-26 20:02:00,33.1,28.2,30.20,NNE,15,6.9,6.9,82,0.00,CLR,,0.01,WeatherDisplay:10.37,2013-03-26 20:02:00,
2013-03-26 20:08:00,33.1,28.2,30.20,NNE,15,5.8,5.8,82,0.00,CLR,,0.01,WeatherDisplay:10.37,2013-03-26 20:08:00,
2013-03-26 20:13:00,33.1,28.2,30.20,NNW,333,5.8,5.8,82,0.00,CLR,,0.01,WeatherDisplay:10.37,2013-03-26 20:13:00,
2013-03-26 20:18:00,33.1,28.2,30.20,North,354,6.0,6.0,82,0.00,CLR,,0.01,WeatherDisplay:10.37,2013-03-26 20:18:00,
2013-03-26 20:24:00,33.1,28.2,30.20,NE,40,7.0,7.0,82,0.00,CLR,,0.01,WeatherDisplay:10.37,2013-03-26 20:24:00,
2013-03-26 20:29:00,33.1,28.2,30.20,NNE,22,8.1,8.1,82,0.00,CLR,,0.01,WeatherDisplay:10.37,2013-03-26 20:29:00,
2013-03-26 20:34:00,33.3,28.1,30.20,ENE,70,7.0,7.0,81,0.00,CLR,,0.01,WeatherDisplay:10.37,2013-03-26 20:34:00,
2013-03-26 20:39:00,33.3,28.1,30.20,NNE,18,4.6,4.6,81,0.00,CLR,,0.01,WeatherDisplay:10.37,2013-03-26 20:39:00,
2013-03-26 20:44:00,33.2,28.0,30.20,North,349,6.0,6.0,81,0.00,CLR,,0.01,WeatherDisplay:10.37,2013-03-26 20:44:00,
2013-03-26 20:49:00,33.2,28.0,30.20,North,349,6.9,6.9,81,0.00,CLR,,0.01,WeatherDisplay:10.37,2013-03-26 20:49:00,
2013-03-26 20:55:00,33.2,28.0,30.20,NNE,25,8.1,8.1,81,0.00,CLR,,0.01,WeatherDisplay:10.37,2013-03-26 20:55:00,
2013-03-26 21:00:00,33.2,28.0,30.20,North,6,10.4,10.4,81,0.00,CLR,,0.01,WeatherDisplay:10.37,2013-03-26 21:00:00,
2013-03-26 21:05:00,33.1,27.9,30.20,NNW,331,5.8,5.8,81,0.00,CLR,,0.01,WeatherDisplay:10.37,2013-03-26 21:05:00,
2013-03-26 21:10:00,33.1,27.9,30.20,NE,54,8.1,8.1,81,0.00,CLR,,0.01,WeatherDisplay:10.37,2013-03-26 21:10:00,
2013-03-26 21:15:00,33.0,27.8,30.20,NNE,13,3.5,3.5,81,0.00,CLR,,0.01,WeatherDisplay:10.37,2013-03-26 21:15:00,
2013-03-26 21:21:00,32.8,27.9,30.20,NE,39,5.0,5.0,82,0.00,CLR,,0.01,WeatherDisplay:10.37,2013-03-26 21:21:00,
2013-03-26 21:26:00,32.7,27.8,30.20,North,6,4.6,4.6,82,0.00,CLR,,0.01,WeatherDisplay:10.37,2013-03-26 21:26:00,
2013-03-26 21:32:00,32.5,27.6,30.20,North,3,5.0,5.0,82,0.00,CLR,,0.01,WeatherDisplay:10.37,2013-03-26 21:32:00,
2013-03-26 21:38:00,32.5,27.9,30.20,NE,37,9.0,9.0,83,0.00,CLR,,0.01,WeatherDisplay:10.37,2013-03-26 21:38:00,
2013-03-26 21:43:00,32.5,27.9,30.20,NNE,20,5.8,5.8,83,0.00,CLR,,0.01,WeatherDisplay:10.37,2013-03-26 21:43:00,
2013-03-26 21:48:00,32.5,27.9,30.19,NNE,29,6.9,6.9,83,0.00,CLR,,0.01,WeatherDisplay:10.37,2013-03-26 21:48:00,
2013-03-26 21:53:00,32.4,27.8,30.19,North,355,4.6,4.6,83,0.00,CLR,,0.01,WeatherDisplay:10.37,2013-03-26 21:53:00,
2013-03-26 21:58:00,32.3,27.7,30.20,NNE,18,5.8,5.8,83,0.00,CLR,,0.01,WeatherDisplay:10.37,2013-03-26 21:58:00,
2013-03-26 22:03:00,32.1,27.5,30.19,North,10,5.8,5.8,83,0.00,CLR,,0.01,WeatherDisplay:10.37,2013-03-26 22:03:00,
2013-03-26 22:08:00,32.0,27.4,30.19,NNW,341,3.5,3.5,83,0.00,CLR,,0.01,WeatherDisplay:10.37,2013-03-26 22:08:00,
2013-03-26 22:14:00,31.9,27.3,30.19,NE,45,3.5,3.5,83,0.00,CLR,,0.01,WeatherDisplay:10.37,2013-03-26 22:14:00,
2013-03-26 22:19:00,31.8,27.5,30.19,NE,37,7.0,7.0,84,0.00,CLR,,0.01,WeatherDisplay:10.37,2013-03-26 22:19:00,
2013-03-26 22:24:00,31.8,27.5,30.20,NNE,18,4.6,4.6,84,0.00,CLR,,0.01,WeatherDisplay:10.37,2013-03-26 22:24:00,
2013-03-26 22:29:00,31.7,27.4,30.19,WNW,296,9.2,9.2,84,0.00,CLR,,0.01,WeatherDisplay:10.37,2013-03-26 22:29:00,
2013-03-26 22:34:00,31.6,27.3,30.19,NNE,30,3.5,3.5,84,0.00,CLR,,0.01,WeatherDisplay:10.37,2013-03-26 22:34:00,
2013-03-26 22:40:00,31.4,27.1,30.19,North,8,4.6,4.6,84,0.00,CLR,,0.01,WeatherDisplay:10.37,2013-03-26 22:40:00,
2013-03-26 22:46:00,31.4,27.4,30.19,NNW,334,6.9,6.9,85,0.00,CLR,,0.01,WeatherDisplay:10.37,2013-03-26 22:46:00,
2013-03-26 22:50:00,31.3,27.3,30.19,North,9,8.1,8.1,85,0.00,CLR,,0.01,WeatherDisplay:10.37,2013-03-26 22:50:00,
2013-03-26 22:57:00,31.3,27.3,30.19,NNE,33,5.0,5.0,85,0.00,CLR,,0.01,WeatherDisplay:10.37,2013-03-26 22:57:00,
2013-03-26 23:02:00,31.3,27.3,30.19,North,1,6.9,6.9,85,0.00,CLR,,0.01,WeatherDisplay:10.37,2013-03-26 23:02:00,
2013-03-26 23:07:00,31.3,27.6,30.19,North,2,5.8,5.8,86,0.00,CLR,,0.01,WeatherDisplay:10.37,2013-03-26 23:07:00,
2013-03-26 23:12:00,31.2,27.5,30.19,North,3,5.8,5.8,86,0.00,CLR,,0.01,WeatherDisplay:10.37,2013-03-26 23:12:00,
2013-03-26 23:17:00,31.2,27.5,30.20,North,1,4.6,4.6,86,0.00,CLR,,0.01,WeatherDisplay:10.37,2013-03-26 23:17:00,
2013-03-26 23:22:00,31.1,27.4,30.20,NNW,344,3.5,3.5,86,0.00,CLR,,0.01,WeatherDisplay:10.37,2013-03-26 23:22:00,
2013-03-26 23:27:00,31.1,27.7,30.20,North,7,5.8,5.8,87,0.00,CLR,,0.01,WeatherDisplay:10.37,2013-03-26 23:27:00,
2013-03-26 23:32:00,31.2,27.8,30.19,NNE,13,3.5,3.5,87,0.00,CLR,,0.01,WeatherDisplay:10.37,2013-03-26 23:32:00,
2013-03-26 23:37:00,31.3,27.9,30.19,NNE,26,5.0,5.0,87,0.00,CLR,,0.01,WeatherDisplay:10.37,2013-03-26 23:37:00,
2013-03-26 23:42:00,31.4,28.0,30.19,North,9,3.5,3.5,87,0.00,CLR,,0.01,WeatherDisplay:10.37,2013-03-26 23:42:00,
2013-03-26 23:48:00,31.4,28.0,30.19,NNW,348,3.5,3.5,87,0.00,CLR,,0.01,WeatherDisplay:10.37,2013-03-26 23:48:00,
2013-03-26 23:53:00,31.3,27.9,30.19,NNW,340,2.3,2.4,87,0.00,CLR,,0.01,WeatherDisplay:10.37,2013-03-26 23:53:00,
2013-03-26 23:58:00,31.2,27.8,30.19,North,11,3.5,3.5,87,0.00,CLR,,0.01,WeatherDisplay:10.37,2013-03-26 23:58:00,